Time;durP1;ratioP1;P1;durP2;ratioP2;P2;SDS_P1;SDS_P2;PMS_P1;PMS_P2;Temp;Humidity;BMP_temperature;BMP_pressure;BME280_temperature;BME280_humidity;BME280_pressure;Samples;Min_cycle;Max_cycle;Signal;HPM_P1;HPM_P2
2023/06/16 00:01:23;;;;;;;9.07;3.70;;;17.30;99.90;;;;;;5117083;28;20175;-42
2023/06/16 00:03:52;;;;;;;8.13;3.73;;;17.30;99.90;;;;;;5116887;28;20290;-43
2023/06/16 00:06:19;;;;;;;13.40;3.73;;;17.30;99.90;;;;;;5117500;28;20651;-40
2023/06/16 00:08:54;;;;;;;9.93;3.40;;;17.20;99.90;;;;;;5117673;28;20286;-41
2023/06/16 00:11:21;;;;;;;6.47;3.80;;;17.10;99.90;;;;;;5117048;28;20163;-40
2023/06/16 00:13:48;;;;;;;9.60;3.80;;;17.10;99.90;;;;;;5116516;28;20198;-41
2023/06/16 00:16:19;;;;;;;10.67;3.40;;;17.00;99.90;;;;;;5116867;28;20185;-43
2023/06/16 00:18:49;;;;;;;6.70;3.40;;;17.00;99.90;;;;;;5116574;28;20171;-44
2023/06/16 00:21:19;;;;;;;4.63;3.13;;;16.90;99.90;;;;;;5116459;28;20175;-41
2023/06/16 00:23:45;;;;;;;6.67;3.43;;;16.90;99.90;;;;;;5116034;28;20209;-43
2023/06/16 00:26:11;;;;;;;10.30;3.80;;;16.80;99.90;;;;;;5116335;28;20178;-43
2023/06/16 00:28:38;;;;;;;8.70;4.10;;;16.80;99.90;;;;;;5115884;28;20213;-41
2023/06/16 00:31:04;;;;;;;7.33;3.67;;;16.70;99.90;;;;;;5114785;28;20170;-42
2023/06/16 00:33:30;;;;;;;12.97;3.80;;;16.70;99.90;;;;;;5116328;28;20274;-42
2023/06/16 00:35:56;;;;;;;8.57;4.00;;;16.70;99.90;;;;;;5116220;28;20511;-41
2023/06/16 00:38:21;;;;;;;6.57;3.27;;;16.60;99.90;;;;;;5115676;28;20194;-41
2023/06/16 00:40:47;;;;;;;6.10;3.87;;;16.60;99.90;;;;;;5115789;28;20175;-43
2023/06/16 00:43:12;;;;;;;9.07;4.40;;;16.60;99.90;;;;;;5115997;28;20182;-42
2023/06/16 00:45:38;;;;;;;7.57;3.60;;;16.60;99.90;;;;;;5115654;28;20208;-42
2023/06/16 00:48:04;;;;;;;6.53;3.50;;;16.50;99.90;;;;;;5115549;28;20206;-40
2023/06/16 00:50:31;;;;;;;9.27;3.47;;;16.50;99.90;;;;;;5115637;28;20167;-41
2023/06/16 00:52:57;;;;;;;13.77;3.47;;;16.40;99.90;;;;;;5115776;28;20174;-44
2023/06/16 00:55:23;;;;;;;8.33;3.63;;;16.40;99.90;;;;;;5115812;28;20571;-39
2023/06/16 00:57:50;;;;;;;7.87;3.63;;;16.40;99.90;;;;;;5114294;28;20174;-41
2023/06/16 01:00:16;;;;;;;5.53;3.10;;;16.30;99.90;;;;;;5115715;28;20185;-44
2023/06/16 01:02:44;;;;;;;9.87;4.30;;;16.20;99.90;;;;;;5115454;28;20223;-40
2023/06/16 01:05:12;;;;;;;9.37;3.57;;;16.20;99.90;;;;;;5115335;28;20194;-41
2023/06/16 01:08:14;;;;;;;8.20;3.60;;;16.10;99.90;;;;;;5115252;28;20202;-44
2023/06/16 01:11:06;;;;;;;9.23;3.67;;;16.00;99.90;;;;;;5115472;28;20269;-42
2023/06/16 01:13:46;;;;;;;10.43;3.70;;;16.00;99.90;;;;;;5115152;28;20159;-42
2023/06/16 01:16:14;;;;;;;6.30;4.10;;;15.90;99.90;;;;;;5115183;28;20219;-41
2023/06/16 01:18:43;;;;;;;8.30;3.60;;;15.90;99.90;;;;;;5115251;28;20269;-43
2023/06/16 01:21:39;;;;;;;9.53;3.83;;;15.80;99.90;;;;;;5115347;28;20206;-42
2023/06/16 01:24:06;;;;;;;9.60;4.17;;;15.70;99.90;;;;;;5114292;28;20732;-42
2023/06/16 01:26:35;;;;;;;10.30;3.73;;;15.70;99.90;;;;;;5114958;28;20174;-43
2023/06/16 01:29:05;;;;;;;7.13;3.53;;;15.60;99.90;;;;;;5114806;28;20248;-42
2023/06/16 01:31:32;;;;;;;10.97;3.80;;;15.60;99.90;;;;;;5114798;28;20631;-43
2023/06/16 01:34:02;;;;;;;10.20;4.17;;;15.60;99.90;;;;;;5114786;28;20194;-41
2023/06/16 01:36:31;;;;;;;8.27;3.70;;;15.50;99.90;;;;;;5114647;28;20174;-43
2023/06/16 01:39:01;;;;;;;9.87;4.20;;;15.40;99.90;;;;;;5114972;28;20174;-43
2023/06/16 01:41:28;;;;;;;6.40;3.43;;;15.40;99.90;;;;;;5114963;28;20221;-41
2023/06/16 01:43:54;;;;;;;12.57;3.87;;;15.40;99.90;;;;;;5114464;28;20684;-43
2023/06/16 01:46:22;;;;;;;8.90;4.10;;;15.30;99.90;;;;;;5114855;28;20189;-40
2023/06/16 01:48:47;;;;;;;7.37;4.33;;;15.20;99.90;;;;;;5114449;28;20210;-42
2023/06/16 01:51:14;;;;;;;4.90;4.10;;;15.30;99.90;;;;;;5114706;28;20174;-41
2023/06/16 01:53:40;;;;;;;4.83;3.40;;;15.20;99.90;;;;;;5114645;28;20201;-41
2023/06/16 01:56:05;;;;;;;7.00;3.80;;;15.20;99.90;;;;;;5114363;28;20174;-44
2023/06/16 01:58:31;;;;;;;7.33;4.07;;;15.20;99.90;;;;;;5114350;28;20185;-43
2023/06/16 02:01:07;;;;;;;9.30;4.00;;;15.20;99.90;;;;;;5114331;28;20171;-40
2023/06/16 02:03:41;;;;;;;7.60;4.03;;;15.20;99.90;;;;;;5114605;28;20249;-43
2023/06/16 02:06:14;;;;;;;6.60;3.40;;;15.20;99.90;;;;;;5114468;28;20164;-44
2023/06/16 02:08:42;;;;;;;4.67;3.80;;;15.10;99.90;;;;;;5114188;28;20196;-42
2023/06/16 02:11:09;;;;;;;5.43;3.50;;;15.10;99.90;;;;;;5114120;28;20197;-41
2023/06/16 02:13:35;;;;;;;6.47;3.87;;;15.10;99.90;;;;;;5114316;28;20226;-42
2023/06/16 02:16:01;;;;;;;9.87;3.80;;;15.00;99.90;;;;;;5114145;28;20174;-47
2023/06/16 02:18:27;;;;;;;6.23;3.60;;;15.10;99.90;;;;;;5114275;28;20546;-46
2023/06/16 02:20:54;;;;;;;9.20;3.93;;;15.10;99.90;;;;;;5114042;28;20170;-47
2023/06/16 02:23:20;;;;;;;5.93;3.83;;;15.00;99.90;;;;;;5113886;28;20223;-47
2023/06/16 02:25:46;;;;;;;6.30;3.63;;;15.00;99.90;;;;;;5113933;28;20174;-48
2023/06/16 02:28:11;;;;;;;8.53;3.93;;;15.00;99.90;;;;;;5114134;28;20206;-48
2023/06/16 02:30:37;;;;;;;8.80;3.80;;;14.90;99.90;;;;;;5114324;28;20576;-46
2023/06/16 02:33:04;;;;;;;8.33;3.90;;;15.00;99.90;;;;;;5113286;28;20182;-43
2023/06/16 02:35:29;;;;;;;9.23;3.80;;;14.90;99.90;;;;;;5115090;28;20186;-42
2023/06/16 02:37:55;;;;;;;14.53;4.30;;;14.90;99.90;;;;;;5114646;28;20206;-41
2023/06/16 02:40:21;;;;;;;9.30;4.13;;;14.90;99.90;;;;;;5113817;28;20211;-43
2023/06/16 02:42:48;;;;;;;11.73;3.97;;;14.80;99.90;;;;;;5112525;28;20189;-41
2023/06/16 02:45:13;;;;;;;10.37;3.63;;;14.80;99.90;;;;;;5113931;28;20251;-42
2023/06/16 02:47:40;;;;;;;7.93;4.00;;;14.70;99.90;;;;;;5113650;28;20210;-40
2023/06/16 02:50:09;;;;;;;17.90;4.30;;;14.70;99.90;;;;;;5113962;28;20597;-42
2023/06/16 02:52:35;;;;;;;9.87;3.83;;;14.70;99.90;;;;;;5114001;28;20189;-41
2023/06/16 02:55:01;;;;;;;9.97;3.70;;;14.70;99.90;;;;;;5113610;28;20190;-41
2023/06/16 02:57:27;;;;;;;9.37;4.37;;;14.60;99.90;;;;;;5113632;28;20178;-40
2023/06/16 02:59:54;;;;;;;7.07;4.13;;;14.60;99.90;;;;;;5113609;28;20680;-40
2023/06/16 03:02:20;;;;;;;8.80;3.53;;;14.60;99.90;;;;;;5113858;28;20185;-41
2023/06/16 03:04:46;;;;;;;6.67;3.60;;;14.70;99.90;;;;;;5114178;28;20547;-40
2023/06/16 03:07:12;;;;;;;9.63;4.30;;;14.70;99.90;;;;;;5113612;28;20254;-43
2023/06/16 03:09:38;;;;;;;9.40;3.97;;;14.80;99.90;;;;;;5113520;28;20178;-42
2023/06/16 03:12:04;;;;;;;6.87;4.00;;;14.90;99.90;;;;;;5113832;28;20242;-41
2023/06/16 03:14:32;;;;;;;7.17;3.80;;;14.90;99.90;;;;;;5113387;28;20186;-42
2023/06/16 03:17:00;;;;;;;8.60;4.40;;;15.00;99.90;;;;;;5113636;28;20171;-41
2023/06/16 03:19:25;;;;;;;8.13;3.80;;;15.00;99.90;;;;;;5113696;28;20193;-42
2023/06/16 03:21:51;;;;;;;10.80;4.03;;;15.10;99.90;;;;;;5113731;28;20186;-41
2023/06/16 03:24:18;;;;;;;8.47;3.70;;;15.10;99.90;;;;;;5113536;28;20292;-41
2023/06/16 03:26:44;;;;;;;8.07;4.10;;;15.20;99.90;;;;;;5113394;28;20182;-41
2023/06/16 03:29:12;;;;;;;6.50;4.00;;;15.20;99.90;;;;;;5113313;28;20205;-41
2023/06/16 03:31:37;;;;;;;6.03;3.40;;;15.10;99.90;;;;;;5113566;28;20182;-40
2023/06/16 03:34:03;;;;;;;7.20;3.70;;;15.10;99.90;;;;;;5113319;28;20601;-41
2023/06/16 03:36:32;;;;;;;8.53;4.40;;;15.10;99.90;;;;;;5113323;28;20171;-41
2023/06/16 03:38:58;;;;;;;8.03;3.57;;;15.00;99.90;;;;;;5113586;28;20213;-42
2023/06/16 03:41:23;;;;;;;7.57;3.77;;;15.00;99.90;;;;;;5113331;28;20174;-41
2023/06/16 03:43:49;;;;;;;9.10;3.63;;;14.90;99.90;;;;;;5118273;28;20292;-42
2023/06/16 03:46:15;;;;;;;3.80;3.27;;;14.90;99.90;;;;;;5120224;28;20657;-40
2023/06/16 03:48:40;;;;;;;9.63;4.10;;;14.80;99.90;;;;;;5120276;28;20247;-42
2023/06/16 03:51:06;;;;;;;9.67;4.30;;;14.80;99.90;;;;;;5117506;28;20174;-41
2023/06/16 03:53:31;;;;;;;8.83;3.80;;;14.80;99.90;;;;;;5117261;28;20174;-41
2023/06/16 03:55:57;;;;;;;12.53;4.10;;;14.80;99.90;;;;;;5117149;28;20181;-41
2023/06/16 03:58:24;;;;;;;5.50;3.63;;;14.80;99.90;;;;;;5115610;28;20193;-41
2023/06/16 04:00:50;;;;;;;8.47;3.77;;;14.80;99.90;;;;;;5117353;28;20193;-41
2023/06/16 04:03:15;;;;;;;5.70;3.67;;;14.80;99.90;;;;;;5116693;28;20642;-42
2023/06/16 04:05:41;;;;;;;7.13;3.43;;;14.70;99.90;;;;;;5116834;28;20194;-41
2023/06/16 04:08:07;;;;;;;8.93;3.90;;;14.70;99.90;;;;;;5116509;28;20194;-43
2023/06/16 04:10:33;;;;;;;6.60;3.60;;;14.60;99.90;;;;;;5116813;28;20183;-42
2023/06/16 04:12:59;;;;;;;7.47;3.90;;;14.60;99.90;;;;;;5116524;28;20205;-40
2023/06/16 04:15:24;;;;;;;7.00;3.67;;;14.60;99.90;;;;;;5116686;28;20236;-41
2023/06/16 04:17:50;;;;;;;4.50;3.23;;;14.60;99.90;;;;;;5116639;28;20698;-41
2023/06/16 04:20:16;;;;;;;8.17;3.83;;;14.50;99.90;;;;;;5116287;28;20181;-41
2023/06/16 04:22:42;;;;;;;9.80;3.43;;;14.50;99.90;;;;;;5116256;28;20185;-40
2023/06/16 04:25:09;;;;;;;4.97;3.47;;;14.50;99.90;;;;;;5116388;28;20202;-42
2023/06/16 04:27:36;;;;;;;5.40;3.60;;;14.50;99.90;;;;;;5116326;28;20214;-47
2023/06/16 04:30:04;;;;;;;5.60;3.47;;;14.50;99.90;;;;;;5116369;28;20262;-46
2023/06/16 04:32:29;;;;;;;9.17;4.07;;;14.50;99.90;;;;;;5116266;28;20182;-46
2023/06/16 04:34:57;;;;;;;10.40;4.40;;;14.50;99.90;;;;;;5116275;28;20557;-46
2023/06/16 04:37:23;;;;;;;9.63;3.80;;;14.50;99.90;;;;;;5115836;28;20190;-46
2023/06/16 04:39:50;;;;;;;7.87;4.00;;;14.50;99.90;;;;;;5116068;28;20202;-45
2023/06/16 04:42:15;;;;;;;8.43;3.97;;;14.60;99.90;;;;;;5115767;28;20599;-47
2023/06/16 04:44:41;;;;;;;10.57;4.33;;;14.60;99.90;;;;;;5115784;28;20204;-46
2023/06/16 04:47:09;;;;;;;20.23;4.83;;;14.70;99.90;;;;;;5116103;28;20186;-46
2023/06/16 04:49:35;;;;;;;10.50;4.60;;;14.80;99.90;;;;;;5115660;28;20293;-46
2023/06/16 04:52:00;;;;;;;12.57;4.60;;;14.90;99.90;;;;;;5116172;28;20205;-47
2023/06/16 04:54:26;;;;;;;4.93;3.93;;;15.00;99.90;;;;;;5115773;28;20662;-47
2023/06/16 04:56:52;;;;;;;8.80;3.80;;;15.00;99.90;;;;;;5116007;28;20223;-47
2023/06/16 04:59:18;;;;;;;10.67;4.33;;;15.10;99.90;;;;;;5115615;28;20177;-46
2023/06/16 05:01:43;;;;;;;12.27;4.53;;;15.10;99.90;;;;;;5115685;28;20174;-48
2023/06/16 05:04:09;;;;;;;11.70;4.50;;;15.10;99.90;;;;;;5115999;28;20194;-46
2023/06/16 05:06:36;;;;;;;7.93;3.70;;;15.20;99.90;;;;;;5115973;28;20260;-46
2023/06/16 05:09:02;;;;;;;10.40;4.33;;;15.20;99.90;;;;;;5115306;28;20297;-47
2023/06/16 05:11:28;;;;;;;7.03;3.67;;;15.30;99.90;;;;;;5115372;28;20181;-47
2023/06/16 05:13:54;;;;;;;12.70;4.90;;;15.40;99.90;;;;;;5115402;28;20198;-45
2023/06/16 05:16:19;;;;;;;5.87;3.97;;;15.40;99.90;;;;;;5115273;28;20174;-48
2023/06/16 05:18:45;;;;;;;14.97;4.83;;;15.50;99.90;;;;;;5115175;28;20274;-47
2023/06/16 05:21:10;;;;;;;17.87;4.60;;;15.60;99.90;;;;;;5115215;28;20178;-46
2023/06/16 05:23:36;;;;;;;11.57;4.20;;;15.60;99.90;;;;;;5113713;28;20209;-46
2023/06/16 05:26:03;;;;;;;10.87;4.33;;;15.70;99.90;;;;;;5115408;28;20186;-46
2023/06/16 05:28:28;;;;;;;9.37;4.17;;;15.80;99.90;;;;;;5115354;28;20689;-46
2023/06/16 05:30:54;;;;;;;7.20;4.40;;;15.90;99.90;;;;;;5115189;28;20170;-45
2023/06/16 05:33:19;;;;;;;9.27;4.20;;;16.00;99.90;;;;;;5115298;28;20194;-47
2023/06/16 05:35:45;;;;;;;8.07;3.93;;;16.10;99.90;;;;;;5115586;28;20258;-45
2023/06/16 05:38:10;;;;;;;15.77;4.37;;;16.30;99.90;;;;;;5114841;28;20537;-45
2023/06/16 05:40:36;;;;;;;17.23;4.43;;;16.40;99.90;;;;;;5115559;28;20174;-45
2023/06/16 05:43:01;;;;;;;11.53;4.53;;;16.50;99.90;;;;;;5116168;28;20216;-46
2023/06/16 05:45:27;;;;;;;7.93;4.27;;;16.60;99.90;;;;;;5115605;28;20195;-45
2023/06/16 05:47:52;;;;;;;21.47;5.07;;;16.70;99.90;;;;;;5114733;28;20194;-46
2023/06/16 05:50:18;;;;;;;8.97;4.63;;;16.80;99.90;;;;;;5114138;28;20549;-45
2023/06/16 05:52:44;;;;;;;13.17;4.97;;;16.90;99.90;;;;;;5114988;28;20218;-43
2023/06/16 05:55:10;;;;;;;16.13;5.30;;;16.90;99.90;;;;;;5114866;28;20186;-47
2023/06/16 05:57:37;;;;;;;10.63;4.80;;;17.00;99.90;;;;;;5113115;28;20207;-45
2023/06/16 06:00:04;;;;;;;11.53;4.70;;;17.10;99.90;;;;;;5114640;28;20255;-44
2023/06/16 06:02:30;;;;;;;22.27;4.70;;;17.20;99.90;;;;;;5114980;28;20178;-46
2023/06/16 06:04:56;;;;;;;16.57;4.50;;;17.40;99.90;;;;;;5115254;28;20203;-45
2023/06/16 06:07:21;;;;;;;17.60;3.80;;;17.50;99.90;;;;;;5114797;28;20507;-44
2023/06/16 06:09:47;;;;;;;17.00;4.17;;;17.70;99.90;;;;;;5114530;28;20631;-47
2023/06/16 06:12:13;;;;;;;21.57;4.40;;;17.90;99.90;;;;;;5113820;28;20201;-45
2023/06/16 06:14:38;;;;;;;9.80;4.40;;;18.10;99.90;;;;;;5114379;28;20201;-46
2023/06/16 06:17:05;;;;;;;11.87;4.07;;;18.40;99.90;;;;;;5114257;28;20623;-46
2023/06/16 06:19:30;;;;;;;18.67;3.80;;;18.80;99.90;;;;;;5114308;28;20307;-46
2023/06/16 06:21:56;;;;;;;16.93;4.10;;;19.10;99.90;;;;;;5114299;28;20223;-48
2023/06/16 06:24:21;;;;;;;17.03;4.50;;;19.30;99.90;;;;;;5113902;28;20689;-46
2023/06/16 06:26:47;;;;;;;18.17;4.60;;;19.60;99.90;;;;;;5114206;28;20174;-48
2023/06/16 06:29:17;;;;;;;11.43;3.97;;;19.80;99.90;;;;;;5113825;28;20278;-47
2023/06/16 06:31:43;;;;;;;7.23;4.00;;;20.10;99.90;;;;;;5114294;28;20166;-46
2023/06/16 06:34:08;;;;;;;11.63;3.73;;;20.30;99.90;;;;;;5113825;28;20239;-47
2023/06/16 06:36:36;;;;;;;15.97;3.70;;;20.70;99.90;;;;;;5114576;28;20177;-46
2023/06/16 06:39:02;;;;;;;10.33;4.20;;;20.90;99.90;;;;;;5113762;28;20654;-46
2023/06/16 06:41:28;;;;;;;14.43;3.87;;;21.10;99.90;;;;;;5114199;28;20170;-47
2023/06/16 06:43:54;;;;;;;11.50;3.67;;;21.10;99.90;;;;;;5113685;28;20292;-47
2023/06/16 06:46:20;;;;;;;5.53;3.67;;;21.00;99.90;;;;;;5113965;28;20181;-47
2023/06/16 06:48:46;;;;;;;9.87;3.60;;;21.20;99.90;;;;;;5114012;28;20206;-47
2023/06/16 06:51:13;;;;;;;16.87;4.07;;;21.40;99.90;;;;;;5113716;28;20172;-48
2023/06/16 06:53:39;;;;;;;8.23;3.90;;;21.70;99.90;;;;;;5113893;28;20537;-47
2023/06/16 06:56:05;;;;;;;11.37;3.67;;;22.00;99.90;;;;;;5113957;28;20555;-48
2023/06/16 06:58:32;;;;;;;22.47;5.27;;;22.30;99.90;;;;;;5114033;28;20175;-47
2023/06/16 07:00:58;;;;;;;21.37;4.17;;;22.40;99.90;;;;;;5113856;28;20269;-45
2023/06/16 07:03:23;;;;;;;18.90;4.93;;;22.30;99.90;;;;;;5113868;28;20174;-46
2023/06/16 07:05:49;;;;;;;23.27;4.23;;;22.20;99.90;;;;;;5113594;28;20185;-49
2023/06/16 07:08:14;;;;;;;12.13;3.90;;;22.10;99.90;;;;;;5113755;28;20202;-48
2023/06/16 07:10:40;;;;;;;19.77;4.37;;;22.00;99.90;;;;;;5113678;28;20173;-48
2023/06/16 07:13:06;;;;;;;19.23;4.37;;;22.00;99.90;;;;;;5112365;28;20273;-48
2023/06/16 07:15:32;;;;;;;11.33;3.77;;;22.20;99.90;;;;;;5113765;28;20201;-48
2023/06/16 07:17:57;;;;;;;21.20;3.53;;;22.20;99.90;;;;;;5113523;28;20543;-47
2023/06/16 07:20:23;;;;;;;11.30;3.80;;;22.20;99.90;;;;;;5113760;28;20174;-48
2023/06/16 07:22:49;;;;;;;12.23;4.27;;;22.40;99.90;;;;;;5114384;28;20257;-48
2023/06/16 07:25:15;;;;;;;15.90;3.87;;;22.50;99.90;;;;;;5117655;28;20688;-47
2023/06/16 07:27:42;;;;;;;16.17;3.43;;;22.40;99.90;;;;;;5117328;28;20202;-48
2023/06/16 07:30:08;;;;;;;23.70;5.23;;;22.50;99.90;;;;;;5117602;28;20227;-49
2023/06/16 07:32:35;;;;;;;14.30;3.87;;;22.70;99.90;;;;;;5117272;28;20182;-48
2023/06/16 07:35:01;;;;;;;14.10;3.50;;;22.90;99.90;;;;;;5117112;28;20194;-48
2023/06/16 07:37:27;;;;;;;22.20;3.90;;;22.90;99.90;;;;;;5117130;28;20182;-47
2023/06/16 07:39:53;;;;;;;16.07;3.90;;;23.30;99.90;;;;;;5117347;28;20526;-47
2023/06/16 07:42:18;;;;;;;17.90;4.13;;;23.60;99.90;;;;;;5117448;28;20183;-48
2023/06/16 07:44:44;;;;;;;16.47;4.07;;;23.60;99.90;;;;;;5117272;28;20194;-49
2023/06/16 07:47:10;;;;;;;15.17;4.03;;;23.80;99.90;;;;;;5115811;28;20182;-48
2023/06/16 07:49:35;;;;;;;17.77;3.33;;;24.00;99.90;;;;;;5116854;28;20251;-48
2023/06/16 07:52:01;;;;;;;16.90;3.77;;;23.90;99.90;;;;;;5117034;28;20163;-49
2023/06/16 07:54:27;;;;;;;12.60;3.63;;;23.90;99.90;;;;;;5116029;28;20662;-48
2023/06/16 07:56:53;;;;;;;19.83;3.60;;;23.80;99.90;;;;;;5115736;28;20182;-48
2023/06/16 07:59:19;;;;;;;18.30;3.77;;;23.80;99.90;;;;;;5116794;28;20204;-48
2023/06/16 08:01:45;;;;;;;10.27;3.63;;;23.70;99.90;;;;;;5116759;28;20182;-48
2023/06/16 08:04:11;;;;;;;11.10;3.80;;;23.70;99.90;;;;;;5116681;28;20233;-48
2023/06/16 08:06:37;;;;;;;8.13;2.97;;;23.60;99.90;;;;;;5116872;28;20214;-49
2023/06/16 08:09:03;;;;;;;19.03;3.83;;;23.50;99.90;;;;;;5115181;28;20241;-49
2023/06/16 08:11:29;;;;;;;16.80;3.50;;;23.60;99.90;;;;;;5116750;28;20182;-49
2023/06/16 08:13:55;;;;;;;19.27;3.90;;;24.00;99.90;;;;;;5116959;28;20573;-49
2023/06/16 08:16:20;;;;;;;20.03;3.80;;;24.20;99.90;;;;;;5116932;28;20181;-48
2023/06/16 08:18:46;;;;;;;18.67;4.00;;;24.10;99.90;;;;;;5115070;28;20186;-49
2023/06/16 08:21:12;;;;;;;16.50;3.07;;;24.00;99.90;;;;;;5116329;28;20639;-48
2023/06/16 08:23:37;;;;;;;10.57;3.33;;;24.00;99.90;;;;;;5116531;28;20198;-48
2023/06/16 08:26:04;;;;;;;11.17;3.17;;;24.20;99.90;;;;;;5116796;28;20230;-49
2023/06/16 08:28:30;;;;;;;6.33;2.93;;;24.60;99.90;;;;;;5116494;28;20218;-48
2023/06/16 08:30:56;;;;;;;9.67;3.17;;;24.80;99.90;;;;;;5116123;28;20175;-50
2023/06/16 08:33:21;;;;;;;11.50;3.00;;;25.00;99.90;;;;;;5115535;28;20175;-48
2023/06/16 08:35:47;;;;;;;10.60;3.03;;;25.00;99.90;;;;;;5115997;28;20282;-50
2023/06/16 08:38:12;;;;;;;12.20;2.97;;;25.10;99.90;;;;;;5115883;28;20198;-50
2023/06/16 08:40:38;;;;;;;8.50;2.93;;;25.20;99.90;;;;;;5116174;28;20209;-49
2023/06/16 08:43:06;;;;;;;8.03;3.07;;;25.50;99.90;;;;;;5115901;28;20590;-49
2023/06/16 08:45:34;;;;;;;12.83;3.77;;;25.70;99.90;;;;;;5116057;28;20202;-48
2023/06/16 08:48:00;;;;;;;6.57;3.07;;;25.70;99.50;;;;;;5116248;28;20301;-49
2023/06/16 08:50:26;;;;;;;8.97;3.20;;;25.60;99.40;;;;;;5116076;28;20186;-50
2023/06/16 08:52:57;;;;;;;5.50;3.20;;;25.40;98.30;;;;;;5115951;28;20254;-49
2023/06/16 08:55:23;;;;;;;8.07;3.07;;;25.30;97.90;;;;;;5115719;28;20205;-50
2023/06/16 08:57:53;;;;;;;4.67;2.53;;;25.30;99.50;;;;;;5115565;28;20213;-49
2023/06/16 09:00:19;;;;;;;9.17;2.93;;;25.40;99.90;;;;;;5115852;28;20186;-49
2023/06/16 09:02:53;;;;;;;14.33;3.30;;;25.50;98.70;;;;;;5115479;28;20181;-49
2023/06/16 09:05:19;;;;;;;7.37;3.10;;;25.60;98.60;;;;;;5115598;28;20194;-49
2023/06/16 09:07:45;;;;;;;6.97;2.53;;;25.80;99.90;;;;;;5115534;28;20198;-48
2023/06/16 09:10:11;;;;;;;7.57;2.90;;;26.00;95.70;;;;;;5115337;28;20182;-49
2023/06/16 09:12:36;;;;;;;5.80;2.67;;;26.10;97.60;;;;;;5114112;28;20182;-49
2023/06/16 09:15:10;;;;;;;7.80;2.63;;;26.30;96.90;;;;;;5115285;28;20201;-50
2023/06/16 09:17:37;;;;;;;7.13;2.75;;;26.40;95.20;;;;;;5115721;28;20163;-49
2023/06/16 09:20:06;;;;;;;5.43;3.17;;;26.50;96.50;;;;;;5113915;28;20186;-49
2023/06/16 09:22:32;;;;;;;9.18;2.78;;;26.70;96.90;;;;;;5113978;28;20201;-50
2023/06/16 09:25:06;;;;;;;6.85;2.72;;;26.80;94.90;;;;;;5113800;28;20205;-50
2023/06/16 09:27:44;;;;;;;7.68;3.13;;;26.80;96.60;;;;;;5115171;28;20185;-50
2023/06/16 09:30:15;;;;;;;7.80;3.13;;;26.90;97.90;;;;;;5115236;28;20174;-49
2023/06/16 09:32:45;;;;;;;10.38;2.83;;;27.10;96.70;;;;;;5115029;28;20165;-50
2023/06/16 09:35:20;;;;;;;9.77;3.40;;;27.20;97.10;;;;;;5114896;28;20243;-50
2023/06/16 09:37:48;;;;;;;9.45;3.05;;;27.40;96.50;;;;;;5114698;28;20200;-50
2023/06/16 09:40:14;;;;;;;4.53;2.70;;;27.40;95.20;;;;;;5113556;28;20646;-50
2023/06/16 09:42:44;;;;;;;8.85;3.40;;;27.30;92.70;;;;;;5115054;28;20235;-49
2023/06/16 09:45:15;;;;;;;9.60;3.13;;;27.10;92.90;;;;;;5114062;28;20194;-50
2023/06/16 09:47:45;;;;;;;10.52;2.80;;;27.00;89.00;;;;;;5114477;28;20561;-50
2023/06/16 09:50:18;;;;;;;3.40;2.20;;;27.00;90.30;;;;;;5114632;28;20167;-51
2023/06/16 09:52:47;;;;;;;5.38;2.88;;;26.90;91.30;;;;;;5114865;28;20194;-49
2023/06/16 09:55:13;;;;;;;3.10;2.53;;;26.90;94.00;;;;;;5114451;28;20569;-50
2023/06/16 09:57:41;;;;;;;7.18;2.40;;;27.20;94.30;;;;;;5114751;28;20654;-51
2023/06/16 10:00:11;;;;;;;3.53;2.70;;;27.50;94.70;;;;;;5114483;28;20183;-50
2023/06/16 10:02:39;;;;;;;4.82;2.58;;;27.60;88.50;;;;;;5114628;28;20182;-51
2023/06/16 10:05:13;;;;;;;5.38;2.60;;;27.40;84.20;;;;;;5113231;28;20603;-51
2023/06/16 10:07:41;;;;;;;6.10;2.58;;;27.30;91.40;;;;;;5114523;28;20507;-49
2023/06/16 10:10:10;;;;;;;5.45;2.60;;;27.40;89.20;;;;;;5114256;28;20178;-50
2023/06/16 10:12:36;;;;;;;8.02;2.97;;;27.50;90.80;;;;;;5113019;28;20174;-49
2023/06/16 10:15:03;;;;;;;5.05;2.72;;;27.50;85.90;;;;;;5112823;28;20216;-50
2023/06/16 10:17:32;;;;;;;3.28;2.97;;;27.40;81.90;;;;;;5114333;28;20261;-51
2023/06/16 10:19:57;;;;;;;5.53;2.65;;;27.20;83.60;;;;;;5114374;28;20298;-50
2023/06/16 10:22:24;;;;;;;3.85;2.88;;;27.30;84.00;;;;;;5114245;28;20178;-45
2023/06/16 10:24:50;;;;;;;5.70;2.65;;;27.30;81.70;;;;;;5113867;28;20670;-45
2023/06/16 10:27:17;;;;;;;2.90;2.30;;;27.20;81.30;;;;;;5114179;28;20202;-45
2023/06/16 10:29:46;;;;;;;5.38;2.80;;;27.20;88.00;;;;;;5113789;28;20206;-44
2023/06/16 10:32:12;;;;;;;3.22;2.60;;;27.30;82.70;;;;;;5114151;28;20534;-46
2023/06/16 10:34:49;;;;;;;5.07;2.65;;;27.10;82.30;;;;;;5114384;28;20707;-45
2023/06/16 10:37:15;;;;;;;3.22;2.70;;;26.90;82.90;;;;;;5113825;28;20611;-46
2023/06/16 10:39:43;;;;;;;3.05;2.70;;;27.00;81.00;;;;;;5113758;28;20182;-45
2023/06/16 10:42:12;;;;;;;3.42;2.92;;;27.10;85.50;;;;;;5113719;28;20650;-45
2023/06/16 10:44:38;;;;;;;3.90;2.50;;;27.20;84.40;;;;;;5113802;28;20243;-45
2023/06/16 10:47:10;;;;;;;5.05;2.80;;;27.30;85.70;;;;;;5113769;28;20575;-44
2023/06/16 10:49:55;;;;;;;5.50;3.10;;;27.40;85.50;;;;;;5113636;28;20202;-46
2023/06/16 10:52:42;;;;;;;3.10;2.80;;;27.30;80.90;;;;;;5114016;28;20155;-45
2023/06/16 10:55:34;;;;;;;4.28;3.00;;;27.30;83.60;;;;;;5113441;28;20216;-44
2023/06/16 10:58:19;;;;;;;4.45;2.78;;;27.30;85.70;;;;;;5117003;28;20170;-46
2023/06/16 11:00:44;;;;;;;6.13;2.90;;;27.60;90.90;;;;;;5118126;28;20551;-44
2023/06/16 11:03:10;;;;;;;4.30;3.13;;;28.00;90.20;;;;;;5118125;28;20265;-46
2023/06/16 11:05:40;;;;;;;4.38;2.92;;;28.20;82.70;;;;;;5117751;28;20270;-46
2023/06/16 11:08:16;;;;;;;3.05;2.75;;;28.10;86.90;;;;;;5117754;28;20206;-45
2023/06/16 11:10:50;;;;;;;6.55;2.83;;;28.10;84.20;;;;;;5117697;28;20180;-46
2023/06/16 11:13:16;;;;;;;4.38;3.00;;;28.00;85.70;;;;;;5117497;28;20724;-45
2023/06/16 11:15:43;;;;;;;3.05;2.63;;;28.10;84.60;;;;;;5117903;28;20257;-45
2023/06/16 11:18:08;;;;;;;5.20;2.90;;;28.00;85.20;;;;;;5117464;28;20294;-46
2023/06/16 11:20:35;;;;;;;5.43;2.90;;;28.20;87.20;;;;;;5118195;28;20163;-46
2023/06/16 11:23:03;;;;;;;5.00;3.20;;;28.40;83.40;;;;;;5117731;28;20170;-46
2023/06/16 11:25:28;;;;;;;7.25;3.10;;;28.40;82.90;;;;;;5117387;28;20194;-46
2023/06/16 11:27:54;;;;;;;5.30;3.17;;;28.40;85.30;;;;;;5117278;28;20391;-45
2023/06/16 11:30:20;;;;;;;31.08;5.65;;;28.50;87.80;;;;;;5117572;28;20177;-45
2023/06/16 11:32:48;;;;;;;6.70;3.17;;;28.60;82.60;;;;;;5117593;28;20178;-46
2023/06/16 11:35:13;;;;;;;3.85;2.88;;;28.60;82.30;;;;;;5117283;28;20681;-45
2023/06/16 11:37:51;;;;;;;6.13;3.47;;;28.60;85.60;;;;;;5117299;28;20186;-45
2023/06/16 11:40:21;;;;;;;6.07;3.50;;;28.40;80.60;;;;;;5117494;28;20170;-46
2023/06/16 11:43:00;;;;;;;3.17;2.85;;;28.50;83.20;;;;;;5117117;28;20220;-46
2023/06/16 11:45:28;;;;;;;6.55;3.17;;;28.70;87.70;;;;;;5117268;28;20198;-46
2023/06/16 11:47:55;;;;;;;3.90;2.95;;;28.90;86.60;;;;;;5117049;28;20198;-45
2023/06/16 11:50:22;;;;;;;4.45;2.88;;;29.20;88.60;;;;;;5116924;28;20664;-46
2023/06/16 11:52:49;;;;;;;5.03;3.10;;;29.40;88.40;;;;;;5117030;28;20703;-47
2023/06/16 11:55:15;;;;;;;5.50;3.35;;;29.60;84.70;;;;;;5116805;28;20231;-46
2023/06/16 11:57:40;;;;;;;7.10;3.25;;;29.80;87.80;;;;;;5117340;28;20175;-46
2023/06/16 12:00:09;;;;;;;3.63;3.20;;;29.80;77.80;;;;;;5116829;28;20575;-45
2023/06/16 12:02:38;;;;;;;6.97;3.60;;;29.60;77.10;;;;;;5117007;28;20171;-47
2023/06/16 12:05:07;;;;;;;8.93;3.65;;;29.30;79.60;;;;;;5116838;28;20182;-46
2023/06/16 12:07:33;;;;;;;6.65;3.85;;;29.20;75.70;;;;;;5115287;28;20177;-45
2023/06/16 12:10:03;;;;;;;5.70;3.42;;;28.90;75.00;;;;;;5115721;28;20654;-45
2023/06/16 12:12:30;;;;;;;5.75;3.80;;;28.70;82.80;;;;;;5116900;28;20261;-46
2023/06/16 12:14:57;;;;;;;5.25;4.00;;;28.80;87.50;;;;;;5116372;28;20288;-46
2023/06/16 12:17:26;;;;;;;6.40;3.63;;;29.20;90.00;;;;;;5116581;28;20189;-46
2023/06/16 12:19:52;;;;;;;6.22;4.00;;;29.60;84.40;;;;;;5116670;28;20190;-46
2023/06/16 12:22:19;;;;;;;8.63;4.50;;;29.60;85.10;;;;;;5116603;28;20189;-45
2023/06/16 12:24:46;;;;;;;8.18;4.18;;;29.30;78.30;;;;;;5116526;28;20245;-45
2023/06/16 12:27:24;;;;;;;6.07;3.95;;;29.30;83.30;;;;;;5116257;28;20166;-45
2023/06/16 12:30:00;;;;;;;9.68;4.88;;;29.40;81.00;;;;;;5116388;28;20205;-47
2023/06/16 12:32:31;;;;;;;7.32;3.90;;;29.40;81.10;;;;;;5114933;28;20177;-45
2023/06/16 12:34:57;;;;;;;6.65;3.70;;;29.40;76.70;;;;;;5116011;28;20194;-46
2023/06/16 12:37:25;;;;;;;5.20;3.58;;;29.40;82.50;;;;;;5115936;28;20296;-46
2023/06/16 12:40:10;;;;;;;5.47;3.67;;;29.40;83.80;;;;;;5116047;28;20178;-45
2023/06/16 12:42:36;;;;;;;5.22;4.00;;;29.60;90.10;;;;;;5116257;28;20173;-46
2023/06/16 12:45:04;;;;;;;7.90;4.00;;;29.80;89.10;;;;;;5116139;28;20206;-45